Nederlandse vliegveldverwachtingen (TAF)

Luchtvaartmeteorologische informatie voor operationeel gebruik en vluchtvoorbereiding is beschikbaar op www.luchtvaartmeteo.nl.

ZCZC
FT211100 EHAM     AMSTERDAM/SCHIPHOL   NLD   -3 m.
TAF EHAM 211104Z 2112/2218 11010KT CAVOK=

ZCZC
FT211100 EHBK     MAASTRICHT/MAASTRICHT-AACHEN   NLD   114 m.
TAF EHBK 211111Z 2112/2218 12008KT CAVOK
    BECMG 2208/2211 18010KT=

ZCZC
FT211100 EHGG     GRONINGEN/EELDE   NLD   5 m.
TAF EHGG 211111Z 2112/2218 11009KT CAVOK=

ZCZC
FT211100 EHRD     ROTTERDAM/THE HAGUE AIRPORT   NLD   -5 m.
TAF EHRD 211104Z 2112/2218 11010KT CAVOK
    BECMG 2209/2212 15010KT
    PROB30 TEMPO 2217/2218 6000 SHRA RA SCT012 SCT030CB=

ZCZC
FT211100 EHEH     EINDHOVEN/EINDHOVEN   NLD   22 m.
TAF EHEH 211155Z 2112/2218 11010KT CAVOK
    BECMG 2118/2121 12006KT
    BECMG 2209/2212 15010KT
    BECMG 2216/2218 4000 SHRA FEW015 SCT030CB OVC050=

ZCZC
FC211300 EHGR     GILZE-RIJEN/GILZE-RIJEN   NLD   14 m.
TAF EHGR 211300Z NIL=

ZCZC
FC211300 EHKD     DE KOOY/DE KOOY   NLD   1 m.
TAF EHKD 211213Z 2113/2201 10012KT CAVOK=

ZCZC
FC211300 EHLW     LEEUWARDEN/LEEUWARDEN   NLD   1 m.
TAF EHLW 211234Z 2113/2201 10010KT CAVOK=

ZCZC
FC211300 EHVK     VOLKEL/VOLKEL   NLD   21 m.
TAF EHVK 211232Z 2113/2201 11013KT CAVOK
    BECMG 2117/2120 11006KT=

ZCZC
FC211300 EHWO     WOENSDRECHT/WOENSDRECHT   NLD   19 m.
TAF EHWO 211300Z NIL=

21/09/2019 15.15 uur LT